Time;durP1;ratioP1;P1;durP2;ratioP2;P2;SDS_P1;SDS_P2;PMS_P1;PMS_P2;Temp;Humidity;BMP_temperature;BMP_pressure;BME280_temperature;BME280_humidity;BME280_pressure;Samples;Min_cycle;Max_cycle;Signal;HPM_P1;HPM_P2
2023/06/17 00:00:28;;;;;;;9.28;7.40;;;;;;;12.05;75.68;99417.75;1683488;83;21554;-61
2023/06/17 00:02:56;;;;;;;8.10;7.40;;;;;;;12.06;75.61;99412.88;1683703;83;22430;-61
2023/06/17 00:05:26;;;;;;;8.48;7.67;;;;;;;12.04;75.51;99414.73;1682780;83;21564;-60
2023/06/17 00:07:53;;;;;;;8.25;7.53;;;;;;;11.99;75.44;99408.95;1682012;83;21072;-60
2023/06/17 00:10:19;;;;;;;7.58;6.85;;;;;;;11.93;75.34;99404.05;1684249;83;21051;-60
2023/06/17 00:12:48;;;;;;;8.23;7.42;;;;;;;11.88;75.47;99403.50;1682056;83;20964;-60
2023/06/17 00:15:18;;;;;;;8.70;7.85;;;;;;;11.86;75.81;99404.41;1682198;83;21519;-60
2023/06/17 00:17:47;;;;;;;8.25;7.42;;;;;;;11.89;75.98;99407.79;1680717;83;21032;-60
2023/06/17 00:20:14;;;;;;;9.38;7.62;;;;;;;11.91;76.01;99408.55;1682506;83;20949;-60
2023/06/17 00:22:43;;;;;;;9.35;7.60;;;;;;;11.91;75.95;99405.94;1682906;83;21075;-60
2023/06/17 00:25:11;;;;;;;9.35;7.67;;;;;;;11.86;76.02;99400.48;1682749;83;21539;-60
2023/06/17 00:27:37;;;;;;;8.48;7.35;;;;;;;11.85;76.21;99394.89;1683698;83;21028;-60
2023/06/17 00:30:06;;;;;;;7.80;7.00;;;;;;;11.82;76.16;99392.42;1683660;83;20964;-60
2023/06/17 00:32:32;;;;;;;7.97;6.95;;;;;;;11.79;75.98;99392.60;1684082;83;21056;-60
2023/06/17 00:34:59;;;;;;;7.35;6.47;;;;;;;11.75;75.97;99396.30;1682103;83;21067;-60
2023/06/17 00:37:27;;;;;;;9.30;6.87;;;;;;;11.72;75.92;99395.17;1681535;83;21579;-60
2023/06/17 00:39:53;;;;;;;7.37;6.67;;;;;;;11.71;76.08;99389.58;1682696;83;21063;-61
2023/06/17 00:42:21;;;;;;;8.63;7.42;;;;;;;11.69;76.04;99391.43;1679797;83;21492;-60
2023/06/17 00:44:54;;;;;;;8.98;6.97;;;;;;;11.67;76.12;99395.90;1682094;83;21088;-60
2023/06/17 00:47:16;;;;;;;8.40;7.53;;;;;;;11.64;76.22;99390.84;1677552;83;21005;-60
2023/06/17 00:49:45;;;;;;;7.97;7.17;;;;;;;11.61;76.24;99388.41;1683991;83;21056;-60
2023/06/17 00:52:14;;;;;;;9.68;7.72;;;;;;;11.58;76.47;99385.97;1692979;84;21613;-60
2023/06/17 00:54:42;;;;;;;10.15;9.25;;;;;;;11.52;76.52;99379.31;1694004;83;20984;-60
2023/06/17 00:57:11;;;;;;;8.13;7.33;;;;;;;11.48;76.39;99386.10;1668076;84;21048;-61
2023/06/17 00:59:38;;;;;;;11.00;9.28;;;;;;;11.37;76.35;99386.26;1663096;85;21027;-60
2023/06/17 01:02:06;;;;;;;9.55;8.23;;;;;;;11.29;76.41;99380.61;1665760;85;20973;-60
2023/06/17 01:04:33;;;;;;;;;;;;;;;11.26;76.83;99380.78;1716632;83;21348;-60
2023/06/17 01:07:05;;;;;;;8.08;7.30;;;;;;;11.26;77.11;99377.30;1713546;83;20152;-60
2023/06/17 01:09:35;;;;;;;9.80;7.28;;;;;;;11.20;76.86;99378.48;1714269;82;21046;-60
2023/06/17 01:12:05;;;;;;;10.25;6.42;;;;;;;11.18;77.14;99375.14;1714323;82;21037;-60
2023/06/17 01:14:33;;;;;;;6.50;5.90;;;;;;;11.16;77.07;99369.14;1713040;83;21533;-61
2023/06/17 01:17:03;;;;;;;7.67;6.97;;;;;;;11.14;77.13;99373.60;1714829;83;21445;-60
2023/06/17 01:19:29;;;;;;;7.05;6.35;;;;;;;11.13;77.16;99372.77;1665332;85;21048;-60
2023/06/17 01:21:57;;;;;;;10.50;8.65;;;;;;;11.11;77.33;99371.16;1683364;83;21008;-60
2023/06/17 01:24:27;;;;;;;;;;;;;;;11.11;77.63;99376.39;1715147;82;21069;-59
2023/06/17 01:26:56;;;;;;;14.68;10.55;;;;;;;11.11;77.89;99363.33;1712832;82;20160;-60
2023/06/17 01:29:26;;;;;;;8.53;7.58;;;;;;;11.10;77.87;99365.10;1715278;82;20998;-60
2023/06/17 01:31:56;;;;;;;12.03;9.85;;;;;;;11.09;77.79;99359.95;1714738;83;21016;-60
2023/06/17 01:34:25;;;;;;;10.03;7.90;;;;;;;11.06;77.82;99360.12;1714230;82;20949;-59
2023/06/17 01:36:54;;;;;;;10.10;8.40;;;;;;;11.03;77.89;99359.82;1714110;83;20975;-59
2023/06/17 01:39:23;;;;;;;9.70;8.45;;;;;;;11.01;77.95;99359.52;1713846;82;21450;-60
2023/06/17 01:41:53;;;;;;;14.13;10.93;;;;;;;10.98;78.09;99360.09;1715536;83;21050;-60
2023/06/17 01:44:20;;;;;;;13.22;10.55;;;;;;;10.97;78.47;99361.47;1713278;83;20986;-60
2023/06/17 01:46:47;;;;;;;11.75;10.18;;;;;;;11.04;78.29;99356.77;1713177;83;22057;-59
2023/06/17 01:49:13;;;;;;;10.65;9.15;;;;;;;11.06;78.28;99362.73;1714562;82;21454;-59
2023/06/17 01:51:40;;;;;;;9.63;8.13;;;;;;;11.03;78.32;99362.90;1714171;83;21101;-59
2023/06/17 01:54:07;;;;;;;11.30;8.78;;;;;;;11.05;78.22;99355.83;1711065;82;21050;-60
2023/06/17 01:56:34;;;;;;;;;;;;;;;11.06;78.35;99357.50;1717026;82;21053;-60
2023/06/17 01:59:00;;;;;;;13.10;10.13;;;;;;;11.09;78.83;99358.64;1715049;83;20184;-60
2023/06/17 02:01:26;;;;;;;12.28;9.50;;;;;;;11.12;78.89;99353.27;1715869;83;21064;-60
2023/06/17 02:03:53;;;;;;;14.00;11.08;;;;;;;11.14;78.88;99356.62;1673602;85;20985;-60
2023/06/17 02:06:19;;;;;;;12.23;9.15;;;;;;;11.15;78.67;99355.71;1714548;82;20980;-59
2023/06/17 02:08:47;;;;;;;10.32;8.68;;;;;;;11.12;78.52;99360.64;1713896;83;21097;-59
2023/06/17 02:11:14;;;;;;;13.08;9.20;;;;;;;11.13;78.55;99356.25;1714890;83;20975;-60
2023/06/17 02:13:41;;;;;;;10.60;8.45;;;;;;;11.10;78.47;99356.42;1666455;85;20967;-60
2023/06/17 02:16:07;;;;;;;11.12;9.35;;;;;;;11.06;78.59;99356.20;1670554;85;21016;-60
2023/06/17 02:18:34;;;;;;;9.03;7.85;;;;;;;11.07;78.63;99355.30;1713011;82;21134;-60
2023/06/17 02:21:01;;;;;;;;;;;;;;;11.08;78.60;99350.44;1716267;83;20926;-59
2023/06/17 02:23:28;;;;;;;9.55;8.10;;;;;;;11.08;78.58;99356.97;1714812;83;20117;-60
2023/06/17 02:25:55;;;;;;;9.53;8.30;;;;;;;11.08;78.53;99353.05;1714671;82;21547;-60
2023/06/17 02:28:21;;;;;;;9.33;7.45;;;;;;;11.09;78.64;99353.41;1711836;83;21068;-60
2023/06/17 02:30:47;;;;;;;8.25;6.80;;;;;;;11.09;78.69;99356.03;1712126;82;21007;-60
2023/06/17 02:33:17;;;;;;;7.75;6.47;;;;;;;11.07;78.55;99360.52;1711027;82;21073;-60
2023/06/17 02:35:46;;;;;;;12.15;9.95;;;;;;;11.00;78.41;99361.30;1711870;82;21067;-60
2023/06/17 02:38:15;;;;;;;10.35;8.43;;;;;;;10.94;78.52;99361.16;1709693;83;21534;-59
2023/06/17 02:40:41;;;;;;;9.93;8.93;;;;;;;10.92;78.74;99362.17;1712516;83;21025;-60
2023/06/17 02:43:08;;;;;;;8.95;7.95;;;;;;;10.91;78.78;99365.25;1708802;83;21017;-60
2023/06/17 02:45:36;;;;;;;11.22;9.90;;;;;;;10.92;78.89;99365.66;1684180;83;21020;-60
2023/06/17 02:48:03;;;;;;;10.00;8.88;;;;;;;10.92;78.97;99365.66;1712674;83;20947;-60
2023/06/17 02:50:29;;;;;;;10.77;8.30;;;;;;;10.91;79.05;99360.03;1708948;83;21120;-60
2023/06/17 02:52:56;;;;;;;9.68;7.95;;;;;;;10.88;79.07;99365.42;1708440;82;21730;-59
2023/06/17 02:55:22;;;;;;;9.87;8.57;;;;;;;10.83;79.00;99363.52;1708722;82;20989;-60
2023/06/17 02:57:49;;;;;;;11.20;9.70;;;;;;;10.80;79.18;99362.38;1701625;82;21651;-60
2023/06/17 03:00:16;;;;;;;9.95;7.80;;;;;;;10.76;79.29;99354.34;1702381;82;21085;-59
2023/06/17 03:02:43;;;;;;;9.60;8.28;;;;;;;10.76;79.32;99360.87;1674132;83;20988;-60
2023/06/17 03:05:09;;;;;;;11.93;9.75;;;;;;;10.76;79.58;99358.27;1710202;83;21028;-60
2023/06/17 03:07:36;;;;;;;9.73;7.70;;;;;;;10.79;79.78;99359.88;1711411;82;21472;-60
2023/06/17 03:10:03;;;;;;;10.88;7.35;;;;;;;10.78;79.67;99359.00;1710432;82;21588;-60
2023/06/17 03:12:30;;;;;;;16.60;9.25;;;;;;;10.79;79.75;99355.48;1678247;83;21131;-61
2023/06/17 03:14:57;;;;;;;10.32;7.95;;;;;;;10.84;79.94;99356.09;1709391;83;20961;-60
2023/06/17 03:17:24;;;;;;;9.40;8.38;;;;;;;10.90;80.01;99356.22;1710110;82;20961;-60
2023/06/17 03:19:51;;;;;;;;;;;;;;;10.94;80.06;99348.11;1710408;82;21035;-61
2023/06/17 03:22:21;;;;;;;10.72;9.43;;;;;;;10.98;80.09;99363.17;1710124;83;20192;-60
2023/06/17 03:24:48;;;;;;;15.50;8.00;;;;;;;10.98;80.08;99361.39;1705982;83;21630;-60
2023/06/17 03:27:16;;;;;;;16.15;9.10;;;;;;;11.02;80.25;99358.14;1689560;82;21060;-60
2023/06/17 03:29:48;;;;;;;18.07;8.23;;;;;;;11.06;80.15;99367.95;1706891;83;20954;-61
2023/06/17 03:32:13;;;;;;;10.72;6.92;;;;;;;11.02;79.83;99364.67;1709536;83;21068;-60
2023/06/17 03:34:40;;;;;;;16.50;7.58;;;;;;;11.01;79.83;99363.44;1711625;82;20981;-60
2023/06/17 03:37:06;;;;;;;12.28;7.80;;;;;;;10.97;79.83;99363.61;1708769;83;21610;-61
2023/06/17 03:39:36;;;;;;;8.60;7.25;;;;;;;10.97;80.12;99370.14;1710178;82;20980;-60
2023/06/17 03:42:03;;;;;;;8.45;7.65;;;;;;;10.99;80.25;99370.07;1711075;82;21267;-60
2023/06/17 03:44:32;;;;;;;10.25;7.28;;;;;;;11.03;80.49;99365.52;1711043;82;20976;-61
2023/06/17 03:46:59;;;;;;;8.38;7.42;;;;;;;11.08;80.74;99366.95;1673173;84;20973;-60
2023/06/17 03:49:25;;;;;;;10.15;7.33;;;;;;;11.14;81.00;99370.99;1709891;82;20954;-60
2023/06/17 03:51:52;;;;;;;14.33;8.58;;;;;;;11.20;80.98;99373.27;1693011;83;21059;-60
2023/06/17 03:54:19;;;;;;;19.07;8.73;;;;;;;11.23;80.91;99367.02;1647807;85;21558;-61
2023/06/17 03:56:45;;;;;;;14.87;8.73;;;;;;;11.28;80.93;99365.84;1692698;83;21531;-60
2023/06/17 03:59:13;;;;;;;11.75;9.10;;;;;;;11.31;81.03;99368.28;1692501;83;21630;-60
2023/06/17 04:01:40;;;;;;;10.82;8.23;;;;;;;11.36;81.33;99363.64;1691916;84;21072;-61
2023/06/17 04:04:06;;;;;;;12.10;8.37;;;;;;;11.40;81.18;99367.78;1687392;83;21000;-60
2023/06/17 04:06:32;;;;;;;12.35;7.87;;;;;;;11.35;80.82;99364.58;1692578;84;20977;-60
2023/06/17 04:08:59;;;;;;;10.15;7.62;;;;;;;11.26;80.69;99370.77;1683833;84;20962;-60
2023/06/17 04:11:26;;;;;;;21.40;8.05;;;;;;;11.24;80.95;99376.09;1686413;83;20962;-60
2023/06/17 04:13:52;;;;;;;12.95;8.28;;;;;;;11.29;81.86;99374.08;1691673;84;21015;-61
2023/06/17 04:16:19;;;;;;;29.57;8.10;;;;;;;11.39;82.50;99370.00;1689950;84;21607;-60
2023/06/17 04:18:45;;;;;;;15.03;8.18;;;;;;;11.49;82.88;99373.42;1689454;84;21100;-61
2023/06/17 04:21:12;;;;;;;20.35;8.85;;;;;;;11.72;83.58;99363.79;1687986;84;20979;-60
2023/06/17 04:23:38;;;;;;;9.55;8.55;;;;;;;11.72;83.58;99363.79;1689691;83;21024;-60
2023/06/17 04:26:04;;;;;;;17.17;9.20;;;;;;;11.90;83.72;99364.98;1692082;84;21467;-60
2023/06/17 04:28:31;;;;;;;10.88;9.55;;;;;;;12.07;83.98;99360.47;1689812;84;21508;-60
2023/06/17 04:31:01;;;;;;;12.53;8.40;;;;;;;12.31;84.47;99360.77;1688496;83;21531;-60
2023/06/17 04:33:30;;;;;;;14.75;8.58;;;;;;;12.44;83.89;99378.38;1683218;83;21052;-60
2023/06/17 04:35:58;;;;;;;11.63;7.83;;;;;;;12.52;83.96;99374.83;1687697;83;21324;-60
2023/06/17 04:38:24;;;;;;;14.40;8.03;;;;;;;12.58;84.53;99344.33;1689749;83;21028;-60
2023/06/17 04:40:52;;;;;;;10.90;8.35;;;;;;;12.83;84.19;99364.61;1692951;84;20980;-60
2023/06/17 04:43:22;;;;;;;9.48;8.40;;;;;;;12.95;84.36;99365.62;1693983;83;21564;-60
2023/06/17 04:45:49;;;;;;;16.93;9.18;;;;;;;13.18;84.92;99359.75;1693039;83;21092;-61
2023/06/17 04:48:16;;;;;;;12.23;8.83;;;;;;;13.37;84.90;99361.23;1690183;83;21036;-60
2023/06/17 04:50:43;;;;;;;12.70;8.28;;;;;;;13.58;85.01;99359.85;1689610;83;21049;-61
2023/06/17 04:53:10;;;;;;;14.25;8.73;;;;;;;13.80;85.11;99361.05;1696029;83;21010;-61
2023/06/17 04:55:36;;;;;;;9.93;8.38;;;;;;;14.00;85.05;99357.95;1687995;83;21147;-60
2023/06/17 04:58:04;;;;;;;9.87;8.30;;;;;;;14.16;84.89;99356.90;1689793;83;21136;-61
2023/06/17 05:00:31;;;;;;;9.45;7.90;;;;;;;14.29;84.63;99357.75;1692046;83;20952;-60
2023/06/17 05:02:57;;;;;;;9.90;7.95;;;;;;;14.32;84.38;99361.00;1669669;84;21024;-61
2023/06/17 05:05:24;;;;;;;13.75;7.00;;;;;;;14.45;85.01;99362.77;1668506;84;20953;-61
2023/06/17 05:07:50;;;;;;;8.70;7.15;;;;;;;14.65;85.22;99361.45;1697515;83;21000;-60
2023/06/17 05:10:17;;;;;;;11.25;6.80;;;;;;;14.76;84.92;99366.80;1695425;83;21095;-61
2023/06/17 05:12:44;;;;;;;9.30;7.15;;;;;;;14.89;84.99;99367.59;1694432;83;20979;-60
2023/06/17 05:15:10;;;;;;;;;;;;;;;15.05;85.23;99362.09;1700206;83;20948;-61
2023/06/17 05:17:37;;;;;;;10.25;6.20;;;;;;;15.26;85.48;99366.27;1694326;83;20131;-60
2023/06/17 05:20:06;;;;;;;26.73;7.85;;;;;;;15.43;85.29;99365.91;1696427;83;20987;-60
2023/06/17 05:22:32;;;;;;;39.50;7.50;;;;;;;15.64;85.32;99362.64;1699328;83;20983;-62
2023/06/17 05:24:58;;;;;;;20.95;7.22;;;;;;;15.82;85.22;99354.74;1698841;83;21009;-61
2023/06/17 05:27:25;;;;;;;40.00;7.83;;;;;;;15.94;84.93;99346.88;1697115;83;20999;-60
2023/06/17 05:29:52;;;;;;;10.82;7.37;;;;;;;16.03;85.09;99348.80;1688142;83;21703;-61
2023/06/17 05:32:22;;;;;;;9.05;7.25;;;;;;;16.15;85.17;99349.66;1676000;83;21039;-60
2023/06/17 05:34:49;;;;;;;25.32;7.22;;;;;;;16.34;85.44;99345.50;1697513;83;20996;-60
2023/06/17 05:37:15;;;;;;;42.75;7.42;;;;;;;16.51;85.30;99340.72;1666311;84;20984;-60
2023/06/17 05:39:41;;;;;;;8.58;6.97;;;;;;;16.74;85.61;99333.16;1689267;83;21028;-61
2023/06/17 05:42:08;;;;;;;7.77;6.70;;;;;;;16.98;85.37;99334.85;1689127;83;21067;-60
2023/06/17 05:44:34;;;;;;;6.67;5.90;;;;;;;17.18;85.46;99324.84;1697412;83;21027;-60
2023/06/17 05:47:00;;;;;;;11.08;6.58;;;;;;;17.47;85.46;99324.27;1699904;83;20944;-61
2023/06/17 05:49:29;;;;;;;6.42;5.72;;;;;;;17.73;85.07;99322.58;1694979;83;21000;-61
2023/06/17 05:51:58;;;;;;;6.60;5.53;;;;;;;17.96;85.13;99317.59;1658227;84;21088;-61
2023/06/17 05:54:24;;;;;;;5.62;5.05;;;;;;;18.31;85.45;99319.02;1653887;85;21362;-61
2023/06/17 05:56:55;;;;;;;7.63;5.30;;;;;;;18.67;85.05;99320.28;1650421;85;21094;-61
2023/06/17 05:59:23;;;;;;;5.95;4.33;;;;;;;18.89;84.57;99319.28;1645189;84;21026;-62
2023/06/17 06:01:49;;;;;;;10.40;4.97;;;;;;;19.13;84.33;99318.06;1675869;84;21582;-61
2023/06/17 06:04:17;;;;;;;5.90;4.83;;;;;;;19.43;84.48;99317.95;1680066;83;21578;-60
2023/06/17 06:06:43;;;;;;;10.15;4.80;;;;;;;19.64;83.54;99317.00;1678489;84;21113;-61
2023/06/17 06:09:10;;;;;;;10.53;5.20;;;;;;;19.84;83.89;99313.38;1680141;83;21019;-61
2023/06/17 06:11:36;;;;;;;7.15;5.40;;;;;;;20.03;83.46;99311.69;1674502;83;21049;-62
2023/06/17 06:14:03;;;;;;;15.23;5.37;;;;;;;20.11;82.74;99314.45;1676929;83;21037;-60
2023/06/17 06:16:29;;;;;;;9.83;5.08;;;;;;;20.18;82.53;99315.53;1677755;84;21010;-60
2023/06/17 06:18:56;;;;;;;11.63;5.53;;;;;;;20.10;82.08;99315.41;1678319;84;21034;-60
2023/06/17 06:21:22;;;;;;;8.73;5.00;;;;;;;20.11;82.16;99307.83;1677630;83;21071;-60
2023/06/17 06:23:52;;;;;;;10.60;5.00;;;;;;;20.08;81.90;99309.41;1680121;83;21047;-60
2023/06/17 06:26:20;;;;;;;5.95;4.65;;;;;;;20.02;81.63;99312.64;1689826;83;21486;-61
2023/06/17 06:28:47;;;;;;;6.25;4.95;;;;;;;19.99;81.68;99308.95;1686599;83;20962;-61
2023/06/17 06:31:18;;;;;;;6.92;5.60;;;;;;;19.99;81.42;99312.93;1680989;84;21059;-60
2023/06/17 06:33:42;;;;;;;6.58;4.78;;;;;;;19.87;80.95;99320.20;1660015;84;21054;-62
2023/06/17 06:36:09;;;;;;;6.22;5.50;;;;;;;19.79;81.00;99315.61;1647816;86;21041;-60
2023/06/17 06:38:37;;;;;;;5.70;5.17;;;;;;;19.73;80.78;99321.97;1685538;83;21421;-60
2023/06/17 06:41:08;;;;;;;6.70;5.72;;;;;;;19.64;80.61;99320.97;1686883;84;21013;-60
2023/06/17 06:43:32;;;;;;;6.50;5.70;;;;;;;19.49;80.22;99326.32;1660649;84;21045;-61
2023/06/17 06:45:58;;;;;;;7.40;6.00;;;;;;;19.24;79.93;99331.20;1643411;86;21931;-62
2023/06/17 06:48:24;;;;;;;5.65;5.10;;;;;;;18.89;79.42;99341.77;1653484;85;22420;-60
2023/06/17 06:50:51;;;;;;;6.50;5.70;;;;;;;18.76;80.12;99355.70;1677924;84;21158;-62
2023/06/17 06:53:19;;;;;;;4.75;4.35;;;;;;;18.75;80.78;99354.04;1673531;84;21812;-61
2023/06/17 06:55:45;;;;;;;4.05;3.67;;;;;;;19.08;81.56;99337.50;1676082;84;21455;-62
2023/06/17 06:58:12;;;;;;;5.12;4.60;;;;;;;19.56;81.52;99335.39;1658244;84;21049;-61
2023/06/17 07:00:39;;;;;;;4.45;4.00;;;;;;;20.00;81.42;99330.52;1678979;84;20998;-61
2023/06/17 07:03:06;;;;;;;5.20;4.37;;;;;;;20.50;80.97;99332.86;1686750;83;20968;-61
2023/06/17 07:05:32;;;;;;;5.28;4.72;;;;;;;21.00;80.49;99327.21;1690598;83;21052;-62
2023/06/17 07:08:00;;;;;;;7.57;4.13;;;;;;;21.46;80.28;99320.09;1687460;83;21036;-60
2023/06/17 07:10:27;;;;;;;4.70;4.25;;;;;;;22.01;80.13;99319.86;1690754;83;21075;-63
2023/06/17 07:12:54;;;;;;;5.65;4.47;;;;;;;22.49;78.84;99322.53;1689306;83;20984;-60
2023/06/17 07:15:20;;;;;;;4.78;4.37;;;;;;;22.64;78.29;99319.27;1687357;83;21124;-60
2023/06/17 07:17:47;;;;;;;5.07;4.50;;;;;;;22.90;78.25;99320.02;1688510;83;22167;-61
2023/06/17 07:20:13;;;;;;;5.97;4.27;;;;;;;23.18;77.73;99319.80;1691259;83;20997;-61
2023/06/17 07:22:40;;;;;;;5.30;4.78;;;;;;;23.43;77.19;99319.34;1690674;83;21020;-62
2023/06/17 07:25:07;;;;;;;5.13;4.63;;;;;;;23.52;76.62;99326.84;1687960;83;21117;-63
2023/06/17 07:27:33;;;;;;;8.53;4.62;;;;;;;23.59;76.29;99327.86;1688776;83;21669;-65
2023/06/17 07:29:59;;;;;;;5.37;4.67;;;;;;;23.61;75.94;99327.17;1688975;83;21067;-64
2023/06/17 07:32:28;;;;;;;5.58;4.95;;;;;;;23.73;75.63;99331.22;1676861;83;21091;-63
2023/06/17 07:34:55;;;;;;;4.92;4.53;;;;;;;23.71;74.71;99335.88;1688228;83;21055;-63
2023/06/17 07:37:22;;;;;;;6.35;4.90;;;;;;;23.57;74.56;99329.84;1686770;83;20963;-64
2023/06/17 07:39:48;;;;;;;7.45;5.10;;;;;;;23.66;74.85;99336.33;1685343;83;21001;-63
2023/06/17 07:42:21;;;;;;;5.40;4.90;;;;;;;23.74;73.97;99331.55;1685905;83;21103;-64
2023/06/17 07:44:47;;;;;;;4.83;4.40;;;;;;;23.71;73.30;99330.55;1684508;83;21035;-63
2023/06/17 07:47:14;;;;;;;5.85;4.67;;;;;;;23.56;72.83;99334.34;1682509;83;21023;-63
2023/06/17 07:49:44;;;;;;;6.20;5.03;;;;;;;23.20;71.92;99335.95;1686387;83;21009;-64
2023/06/17 07:52:29;;;;;;;5.47;4.97;;;;;;;22.84;71.57;99333.98;1679590;83;21610;-63
2023/06/17 07:54:44;;;;;;;9.10;4.55;;;;;;;22.49;71.43;99334.50;1675714;83;21669;-63
2023/06/17 07:57:15;;;;;;;6.92;4.83;;;;;;;22.22;71.02;99332.01;1681255;83;21060;-63
2023/06/17 07:59:42;;;;;;;5.35;4.80;;;;;;;21.98;70.90;99340.11;1681538;83;21099;-64
2023/06/17 08:02:12;;;;;;;6.55;4.87;;;;;;;21.70;70.61;99342.55;1684914;83;21047;-64
2023/06/17 08:04:39;;;;;;;6.33;4.78;;;;;;;21.54;70.43;99341.42;1686486;83;21059;-63
2023/06/17 08:07:05;;;;;;;8.33;4.58;;;;;;;21.38;70.38;99346.58;1685158;83;20988;-64
2023/06/17 08:09:33;;;;;;;5.60;4.40;;;;;;;21.31;70.21;99350.77;1684118;83;21020;-63
2023/06/17 08:12:03;;;;;;;4.43;4.03;;;;;;;21.21;69.97;99349.03;1684443;83;21080;-63
2023/06/17 08:14:30;;;;;;;4.45;3.83;;;;;;;21.09;69.41;99350.23;1688635;83;21103;-63
2023/06/17 08:17:05;;;;;;;3.95;3.55;;;;;;;21.01;69.41;99344.83;1683255;83;21100;-64
2023/06/17 08:19:35;;;;;;;4.85;3.65;;;;;;;20.98;69.19;99349.11;1683528;83;20996;-63
2023/06/17 08:22:06;;;;;;;6.20;3.37;;;;;;;20.97;68.91;99339.45;1677520;83;21086;-63
2023/06/17 08:24:32;;;;;;;5.47;3.47;;;;;;;20.97;68.68;99344.77;1683255;83;21650;-63
2023/06/17 08:27:01;;;;;;;4.05;3.65;;;;;;;21.01;68.74;99339.02;1682251;83;21590;-63
2023/06/17 08:29:29;;;;;;;3.50;3.20;;;;;;;21.08;68.61;99335.27;1674838;83;21610;-64
2023/06/17 08:31:55;;;;;;;6.12;3.98;;;;;;;21.08;68.07;99343.23;1687387;83;21575;-63
2023/06/17 08:34:21;;;;;;;4.03;3.62;;;;;;;21.07;68.17;99350.86;1687225;83;21032;-63
2023/06/17 08:36:54;;;;;;;7.87;4.10;;;;;;;21.06;67.78;99349.20;1687265;83;21119;-63
2023/06/17 08:39:21;;;;;;;4.03;3.33;;;;;;;21.02;67.72;99353.13;1683314;83;21082;-63
2023/06/17 08:41:48;;;;;;;4.47;4.07;;;;;;;20.95;67.60;99349.41;1689761;83;21351;-63
2023/06/17 08:44:14;;;;;;;5.35;3.62;;;;;;;20.85;67.40;99352.59;1686328;83;21326;-63
2023/06/17 08:46:46;;;;;;;5.40;4.25;;;;;;;20.75;67.26;99353.48;1685924;83;21465;-63
2023/06/17 08:49:18;;;;;;;8.50;4.62;;;;;;;20.62;67.09;99350.31;1683723;83;21036;-63
2023/06/17 08:51:42;;;;;;;5.85;4.60;;;;;;;20.53;67.01;99356.50;1686710;83;21027;-63
2023/06/17 08:57:18;;;;;;;5.45;4.65;;;;;;;20.32;67.29;99354.01;1557010;90;21573;-64
2023/06/17 08:59:30;;;;;;;5.00;4.60;;;;;;;20.27;67.06;99357.58;1513071;91;21198;-63
2023/06/17 09:01:57;;;;;;;6.35;4.53;;;;;;;20.26;67.20;99357.23;1517448;93;21153;-63
2023/06/17 09:04:26;;;;;;;6.83;4.78;;;;;;;20.29;67.29;99355.13;1509527;93;21054;-63
2023/06/17 09:06:52;;;;;;;8.08;4.28;;;;;;;20.41;67.39;99354.95;1535702;92;21943;-63
2023/06/17 09:09:19;;;;;;;7.13;4.70;;;;;;;20.43;67.01;99353.00;1536975;92;21604;-63
2023/06/17 09:11:52;;;;;;;5.20;4.70;;;;;;;20.41;67.08;99352.30;1535483;92;21106;-63
2023/06/17 09:14:25;;;;;;;5.47;4.97;;;;;;;20.33;66.98;99347.72;1534656;92;21079;-63
2023/06/17 09:16:50;;;;;;;6.53;4.70;;;;;;;20.33;67.23;99348.58;1534700;92;21070;-63
2023/06/17 09:19:16;;;;;;;5.72;4.78;;;;;;;20.30;66.71;99352.81;1537273;92;21062;-62
2023/06/17 09:21:47;;;;;;;5.33;4.83;;;;;;;20.24;67.14;99353.39;1533328;92;21157;-64
2023/06/17 09:24:15;;;;;;;6.80;5.85;;;;;;;20.21;67.05;99349.70;1531121;92;21615;-63
2023/06/17 09:26:50;;;;;;;6.22;4.80;;;;;;;20.31;67.32;99349.70;1533270;92;21123;-63
2023/06/17 09:29:14;;;;;;;7.20;5.37;;;;;;;20.41;67.26;99344.35;1608737;87;21095;-62
2023/06/17 09:31:54;;;;;;;6.65;4.65;;;;;;;20.54;67.21;99343.08;1609694;87;21184;-63
2023/06/17 09:34:24;;;;;;;5.97;5.33;;;;;;;20.66;67.10;99336.27;1610015;87;21087;-64
2023/06/17 09:37:03;;;;;;;7.62;5.00;;;;;;;20.79;66.98;99342.91;1606513;88;21051;-63
2023/06/17 09:39:31;;;;;;;7.22;4.58;;;;;;;20.88;66.98;99343.01;1609050;88;21051;-64
2023/06/17 09:42:10;;;;;;;8.45;4.37;;;;;;;21.04;66.77;99349.01;1611001;86;21091;-64
2023/06/17 09:44:37;;;;;;;;;;;;;;;21.18;66.78;99336.05;1610878;88;21057;-64
2023/06/17 09:47:08;;;;;;;7.20;3.80;;;;;;;21.33;66.41;99335.53;1612962;88;20143;-63
2023/06/17 09:49:36;;;;;;;4.47;3.72;;;;;;;21.49;66.29;99333.07;1607037;88;21058;-64
2023/06/17 09:52:09;;;;;;;4.12;3.80;;;;;;;21.64;66.32;99331.53;1606194;88;21050;-64
2023/06/17 09:54:34;;;;;;;5.78;3.90;;;;;;;21.83;65.75;99329.70;1614213;87;21126;-64
2023/06/17 09:57:04;;;;;;;3.90;3.50;;;;;;;21.94;65.58;99322.81;1672131;84;21033;-65
2023/06/17 09:59:32;;;;;;;3.85;3.33;;;;;;;22.16;65.01;99319.31;1684032;83;21499;-64
2023/06/17 10:01:59;;;;;;;5.92;3.25;;;;;;;22.33;65.21;99317.12;1685849;83;21106;-64
2023/06/17 10:04:29;;;;;;;3.47;2.92;;;;;;;22.49;64.85;99310.56;1688967;83;21234;-64
2023/06/17 10:07:02;;;;;;;3.52;2.95;;;;;;;22.56;64.62;99314.23;1676468;83;21157;-64
2023/06/17 10:09:43;;;;;;;5.05;3.40;;;;;;;22.77;64.49;99317.83;1685591;83;21515;-65
2023/06/17 10:12:09;;;;;;;3.95;2.90;;;;;;;22.94;64.41;99314.72;1674681;83;21550;-64
2023/06/17 10:17:33;;;;;;;5.00;3.60;;;;;;;23.27;63.74;99312.14;1592234;88;21099;-64
2023/06/17 10:20:21;;;;;;;3.55;3.00;;;;;;;23.55;63.87;99309.19;1575797;88;21151;-64
2023/06/17 10:22:54;;;;;;;3.10;2.80;;;;;;;23.80;63.33;99302.05;1591682;86;21113;-64
2023/06/17 10:25:38;;;;;;;4.10;3.67;;;;;;;24.00;63.35;99300.72;1581097;88;21165;-64
2023/06/17 10:28:07;;;;;;;3.67;3.00;;;;;;;24.13;62.72;99302.84;1570193;87;21194;-64
2023/06/17 10:30:58;;;;;;;;;;;;;;;;;;;;;
2023/06/17 10:34:04;;;;;;;;;;;;;;;;;;;;;
2023/06/17 10:36:34;;;;;;;6.10;3.55;;;;;;;24.33;62.07;99290.78;1535982;89;21722;-63
2023/06/17 10:38:54;;;;;;;;;;;;;;;;;;;;;
2023/06/17 10:41:39;;;;;;;6.05;3.80;;;;;;;24.51;61.52;99293.27;1464659;96;22464;-64
2023/06/17 10:44:35;;;;;;;9.80;3.77;;;;;;;24.47;61.06;99303.12;1455067;97;21716;-63
2023/06/17 10:49:49;;;;;;;4.05;3.60;;;;;;;24.34;60.66;99300.47;1382998;101;21180;-64
2023/06/17 10:52:38;;;;;;;;;;;;;;;;;;;;;
2023/06/17 10:55:30;;;;;;;4.95;3.62;;;;;;;24.39;60.71;99289.27;1347349;105;21334;-64
2023/06/17 10:57:42;;;;;;;3.42;3.12;;;;;;;24.48;60.53;99280.28;1341810;105;21252;-64
2023/06/17 11:00:11;;;;;;;5.37;3.85;;;;;;;24.60;60.13;99283.39;1358422;104;21784;-63
2023/06/17 11:02:55;;;;;;;5.83;3.27;;;;;;;24.67;60.16;99287.52;1350301;105;21181;-64
2023/06/17 11:05:18;;;;;;;3.90;3.50;;;;;;;24.87;60.08;99283.92;1363322;103;21748;-61
2023/06/17 11:08:04;;;;;;;;;;;;;;;;;;;;;
2023/06/17 11:10:33;;;;;;;4.80;3.10;;;;;;;25.38;59.70;99270.95;1413083;98;21680;-60
2023/06/17 11:13:16;;;;;;;;;;;;;;;;;;;;;
2023/06/17 11:18:28;;;;;;;3.92;3.25;;;;;;;25.60;58.66;99267.42;1511082;92;21114;-62
2023/06/17 11:21:19;;;;;;;;;;;;;;;;;;;;;
2023/06/17 11:23:49;;;;;;;4.90;3.95;;;;;;;25.86;58.53;99268.89;1498986;93;21145;-61
2023/06/17 11:29:16;;;;;;;;;;;;;;;;;;;;;
2023/06/17 11:32:14;;;;;;;;;;;;;;;;;;;;;
2023/06/17 11:34:31;;;;;;;;;;;;;;;;;;;;;
2023/06/17 11:37:21;;;;;;;;;;;;;;;;;;;;;
2023/06/17 11:39:32;;;;;;;6.03;3.40;;;;;;;27.73;56.00;99262.06;1502201;93;21607;-65
2023/06/17 11:49:59;;;;;;;3.83;3.40;;;;;;;28.36;54.87;99258.05;1362593;102;20261;-64
2023/06/17 11:55:51;;;;;;;;;;;;;;;;;;;;;
2023/06/17 12:03:28;;;;;;;4.22;2.72;;;;;;;28.21;53.46;99256.84;1163870;120;22604;-64
2023/06/17 12:06:05;;;;;;;5.60;3.67;;;;;;;28.38;52.65;99251.15;1154738;120;21224;-64
2023/06/17 12:08:39;;;;;;;5.28;3.50;;;;;;;28.29;52.10;99247.80;1165141;120;21323;-64
2023/06/17 12:14:16;;;;;;;4.05;3.25;;;;;;;28.89;52.63;99245.38;1155938;122;21280;-63
2023/06/17 12:16:47;;;;;;;3.85;2.77;;;;;;;29.22;51.99;99240.92;1163509;121;21956;-64
2023/06/17 12:19:37;;;;;;;;;;;;;;;;;;;;;
2023/06/17 12:22:08;;;;;;;4.12;2.60;;;;;;;28.88;50.30;99247.23;1169162;120;21901;-62
2023/06/17 12:24:51;;;;;;;4.25;2.83;;;;;;;28.32;49.64;99242.03;1171944;120;21207;-61
2023/06/17 12:27:27;;;;;;;4.20;2.72;;;;;;;28.32;50.33;99232.12;1187941;117;22924;-61
2023/06/17 12:30:10;;;;;;;;;;;;;;;;;;;;;